createdAt,value
2019-01-22T00:03:54.739Z,78.25
2019-01-22T00:06:44.873Z,84.40
2019-01-22T00:09:27.168Z,88.60
2019-01-22T00:12:16.970Z,80.07
2019-01-22T00:14:59.409Z,81.97
2019-01-22T00:17:49.530Z,92.20
2019-01-22T00:20:32.491Z,85.03
2019-01-22T00:23:22.307Z,84.97
2019-01-22T00:26:06.375Z,86.70
2019-01-22T00:28:56.170Z,80.90
2019-01-22T00:31:38.798Z,76.22
2019-01-22T00:34:28.909Z,84.20
2019-01-22T00:37:12.084Z,88.62
2019-01-22T00:39:54.806Z,87.35
2019-01-22T00:45:52.401Z,78.52
2019-01-22T00:48:42.470Z,88.33
2019-01-22T00:51:27.344Z,83.62
2019-01-22T00:54:17.729Z,79.75
2019-01-22T00:57:00.803Z,79.10
2019-01-22T00:59:50.997Z,79.62
2019-01-22T01:02:35.972Z,81.28
2019-01-22T01:05:25.863Z,75.75
2019-01-22T01:08:09.211Z,80.72
2019-01-22T01:10:59.296Z,83.50
2019-01-22T01:14:01.351Z,72.00
2019-01-22T01:16:44.065Z,80.80
2019-01-22T01:19:34.483Z,92.60
2019-01-22T01:22:17.777Z,85.22
2019-01-22T01:25:28.849Z,77.80
2019-01-22T01:28:18.672Z,73.40
2019-01-22T01:31:01.330Z,77.37
2019-01-22T01:33:44.278Z,78.15
2019-01-22T01:36:34.691Z,71.10
2019-01-22T01:39:18.672Z,79.92
2019-01-22T01:42:08.421Z,79.15
2019-01-22T01:48:06.706Z,77.72
2019-01-22T01:50:56.889Z,71.85
2019-01-22T01:54:00.493Z,76.33
2019-01-22T02:00:18.759Z,71.45
2019-01-22T02:03:08.798Z,78.40
2019-01-22T02:05:52.916Z,85.28
2019-01-22T02:08:35.826Z,80.47
2019-01-22T02:11:26.177Z,72.10
2019-01-22T02:14:31.662Z,72.32
2019-01-22T02:17:42.741Z,75.15
2019-01-22T02:20:51.760Z,73.52
2019-01-22T02:24:20.669Z,78.55
2019-01-22T02:27:05.201Z,71.15
2019-01-22T02:30:34.132Z,72.37
2019-01-22T02:33:21.455Z,74.47
2019-01-22T02:36:52.021Z,73.20
2019-01-22T02:39:36.886Z,74.25
2019-01-22T02:42:48.027Z,70.67
2019-01-22T02:45:50.774Z,72.45
2019-01-22T02:49:19.705Z,81.72
2019-01-22T02:52:48.464Z,78.30
2019-01-22T02:55:33.071Z,70.28
2019-01-22T02:58:43.902Z,75.12
2019-01-22T03:01:28.608Z,75.95
2019-01-22T03:04:40.310Z,72.80
2019-01-22T03:07:24.608Z,68.45
2019-01-22T03:10:26.946Z,78.65
2019-01-22T03:13:38.052Z,72.30
2019-01-22T03:16:40.216Z,74.45
2019-01-22T03:20:09.058Z,69.22
2019-01-22T03:23:11.426Z,66.55
2019-01-22T03:26:40.587Z,69.65
2019-01-22T03:29:25.262Z,69.47
2019-01-22T03:32:36.113Z,72.27
2019-01-22T03:35:20.399Z,69.97
2019-01-22T03:38:49.984Z,71.00
2019-01-22T03:41:59.851Z,67.03
2019-01-22T03:45:28.626Z,65.32
2019-01-22T03:48:31.168Z,69.92
2019-01-22T03:53:53.606Z,72.95
2019-01-22T03:57:10.609Z,72.37
2019-01-22T04:00:00.432Z,76.60
2019-01-22T04:02:44.486Z,79.20
2019-01-22T04:05:34.657Z,82.42
2019-01-22T04:08:18.968Z,75.28
2019-01-22T04:11:09.104Z,75.10
2019-01-22T04:13:53.530Z,71.00
2019-01-22T04:16:43.436Z,67.82
2019-01-22T04:19:28.205Z,75.90
2019-01-22T04:22:39.077Z,64.40
2019-01-22T04:25:25.900Z,70.65
2019-01-22T04:28:37.396Z,77.40
2019-01-22T04:31:39.097Z,74.27
2019-01-22T04:34:41.293Z,74.42
2019-01-22T04:37:52.135Z,67.42
2019-01-22T04:41:22.589Z,69.47
2019-01-22T04:44:51.216Z,64.27
2019-01-22T04:47:35.371Z,73.50
2019-01-22T04:51:03.987Z,69.95
2019-01-22T04:54:09.780Z,68.17
2019-01-22T04:57:18.700Z,80.25
2019-01-22T05:00:31.336Z,72.25
2019-01-22T05:04:03.271Z,71.67
2019-01-22T05:07:07.506Z,73.17
2019-01-22T05:13:19.455Z,65.70
2019-01-22T05:16:06.726Z,73.17
2019-01-22T05:19:17.922Z,76.35
2019-01-22T05:22:02.310Z,66.25
2019-01-22T05:25:31.086Z,70.65
2019-01-22T05:28:33.979Z,72.67
2019-01-22T05:31:44.827Z,73.28
2019-01-22T05:34:47.240Z,79.32
2019-01-22T05:37:49.895Z,71.40
2019-01-22T05:41:19.396Z,76.28
2019-01-22T05:44:29.272Z,75.17
2019-01-22T05:47:57.923Z,74.17
2019-01-22T05:50:42.703Z,81.85
2019-01-22T05:53:53.908Z,74.32
2019-01-22T05:56:37.916Z,72.20
2019-01-22T05:59:49.044Z,66.60
2019-01-22T06:02:33.142Z,69.77
2019-01-22T06:05:44.273Z,63.87
2019-01-22T06:08:31.748Z,78.47
2019-01-22T06:12:00.513Z,71.45
2019-01-22T06:14:48.544Z,64.30
2019-01-22T06:18:17.165Z,74.07
2019-01-22T06:21:01.392Z,72.78
2019-01-22T06:24:14.944Z,74.72
2019-01-22T06:27:25.902Z,70.55
2019-01-22T06:30:15.362Z,67.37
2019-01-22T06:33:29.151Z,71.92
2019-01-22T06:36:31.164Z,72.47
2019-01-22T06:39:45.100Z,71.57
2019-01-22T06:42:55.652Z,63.92
2019-01-22T06:46:24.900Z,70.85
2019-01-22T06:49:15.837Z,79.72
2019-01-22T06:52:25.244Z,73.02
2019-01-22T06:55:36.399Z,76.53
2019-01-22T06:58:47.981Z,73.15
2019-01-22T07:01:52.053Z,72.78
2019-01-22T07:05:05.826Z,71.53
2019-01-22T07:08:09.653Z,65.65
2019-01-22T07:10:53.689Z,68.17
2019-01-22T07:14:04.837Z,67.60
2019-01-22T07:16:49.293Z,82.10
2019-01-22T07:20:00.274Z,68.90
2019-01-22T07:23:21.416Z,72.58
2019-01-22T07:26:50.023Z,69.80
2019-01-22T07:29:52.578Z,73.00
2019-01-22T07:33:21.242Z,62.35
2019-01-22T07:36:32.332Z,70.52
2019-01-22T07:39:43.617Z,68.47
2019-01-22T07:42:30.843Z,70.15
2019-01-22T07:45:59.462Z,74.85
2019-01-22T07:48:49.389Z,64.05
2019-01-22T07:52:00.572Z,67.65
2019-01-22T07:55:29.488Z,60.58
2019-01-22T07:58:13.847Z,66.53
2019-01-22T08:01:42.516Z,68.90
2019-01-22T08:11:41.598Z,69.47
2019-01-22T08:14:52.454Z,66.33
2019-01-22T08:18:21.088Z,72.75
2019-01-22T08:21:23.745Z,71.22
2019-01-22T08:24:34.932Z,65.45
2019-01-22T08:27:23.947Z,66.40
2019-01-22T08:34:12.074Z,61.48
2019-01-22T08:36:59.591Z,72.25
2019-01-22T08:40:11.925Z,65.90
2019-01-22T08:42:56.341Z,70.25
2019-01-22T08:46:07.185Z,66.62
2019-01-22T08:52:37.018Z,68.52
2019-01-22T08:55:24.315Z,65.92
2019-01-22T08:58:52.947Z,61.30
2019-01-22T09:01:43.104Z,59.45
2019-01-22T09:05:12.042Z,67.00
2019-01-22T09:07:57.029Z,61.10
2019-01-22T09:11:25.908Z,63.40
2019-01-22T09:14:11.194Z,67.03
2019-01-22T09:17:22.059Z,63.63
2019-01-22T09:24:09.600Z,53.83
2019-01-22T09:26:54.046Z,62.33
2019-01-22T09:30:04.959Z,60.52
2019-01-22T09:33:07.870Z,52.10
2019-01-22T09:36:36.789Z,56.65
2019-01-22T09:39:19.285Z,59.80
2019-01-22T09:42:09.318Z,59.95
2019-01-22T09:44:59.122Z,56.42
2019-01-22T09:47:41.829Z,59.88
2019-01-22T09:50:31.870Z,64.45
2019-01-22T09:53:16.476Z,56.60
2019-01-22T09:56:06.284Z,57.55
2019-01-22T10:02:24.665Z,53.55
2019-01-22T10:05:14.834Z,55.63
2019-01-22T10:08:04.655Z,55.33
2019-01-22T10:10:45.752Z,56.70
2019-01-22T10:13:28.801Z,56.13
2019-01-22T10:16:18.596Z,50.40
2019-01-22T10:19:02.878Z,51.55
2019-01-22T10:21:52.969Z,54.85
2019-01-22T10:24:36.114Z,53.83
2019-01-22T10:27:26.256Z,47.20
2019-01-22T10:30:11.269Z,49.80
2019-01-22T10:33:01.348Z,48.48
2019-01-22T10:35:41.997Z,49.20
2019-01-22T10:38:25.100Z,47.43
2019-01-22T10:41:15.306Z,52.15
2019-01-22T10:43:58.353Z,52.50
2019-01-22T10:46:48.519Z,52.33
2019-01-22T10:49:38.341Z,49.75
2019-01-22T10:52:21.642Z,42.30
2019-01-22T10:55:36.193Z,50.83
2019-01-22T10:58:36.024Z,52.90
2019-01-22T11:01:07.065Z,51.73
2019-01-22T11:03:50.985Z,50.30
2019-01-22T11:06:41.062Z,46.68
2019-01-22T11:09:25.698Z,55.28
2019-01-22T11:12:08.225Z,52.88
2019-01-22T11:14:58.038Z,47.67
2019-01-22T11:17:42.779Z,49.00
2019-01-22T11:20:33.240Z,39.88
2019-01-22T11:23:23.036Z,50.28
2019-01-22T11:26:12.830Z,46.45
2019-01-22T11:28:57.556Z,39.33
2019-01-22T11:31:47.367Z,42.95
2019-01-22T11:34:30.783Z,45.40
2019-01-22T11:37:20.963Z,42.35
2019-01-22T11:40:06.494Z,47.85
2019-01-22T11:42:56.266Z,46.13
2019-01-22T11:45:39.160Z,47.58
2019-01-22T11:48:28.965Z,47.78
2019-01-22T11:51:14.029Z,55.92
2019-01-22T11:54:03.811Z,46.98
2019-01-22T11:56:46.851Z,44.45
2019-01-22T11:59:36.636Z,42.93
2019-01-22T12:02:19.792Z,47.25
2019-01-22T12:05:09.824Z,48.90
2019-01-22T12:07:52.280Z,47.17
2019-01-22T12:10:42.618Z,47.60
2019-01-22T12:13:25.472Z,49.90
2019-01-22T12:16:15.230Z,49.58
2019-01-22T12:18:59.814Z,40.95
2019-01-22T12:21:49.591Z,43.45
2019-01-22T12:24:40.981Z,36.95
2019-01-22T12:27:24.166Z,60.17
2019-01-22T12:30:35.699Z,44.88
2019-01-22T12:33:18.818Z,48.17
2019-01-22T12:36:08.951Z,42.80
2019-01-22T12:38:51.989Z,36.63
2019-01-22T12:41:41.781Z,36.75
2019-01-22T12:44:33.223Z,36.20
2019-01-22T12:47:15.884Z,39.08
2019-01-22T12:50:26.709Z,39.53
2019-01-22T12:53:18.144Z,35.15
2019-01-22T12:56:04.690Z,39.88
2019-01-22T12:58:52.955Z,35.50
2019-01-22T13:01:36.168Z,41.95
2019-01-22T13:04:25.980Z,36.45
2019-01-22T13:07:08.891Z,37.83
2019-01-22T13:09:58.677Z,37.83
2019-01-22T13:12:41.064Z,39.27
2019-01-22T13:15:24.209Z,35.08
2019-01-22T13:18:13.965Z,41.25
2019-01-22T13:20:56.550Z,52.38
2019-01-22T13:23:46.337Z,41.83
2019-01-22T13:26:36.168Z,34.73
2019-01-22T13:29:19.350Z,34.48
2019-01-22T13:32:09.182Z,36.10
2019-01-22T13:34:51.665Z,35.30
2019-01-22T13:37:41.741Z,33.67
2019-01-22T13:40:24.885Z,33.95
2019-01-22T13:43:14.684Z,33.15
2019-01-22T13:45:58.784Z,28.55
2019-01-22T13:48:48.554Z,29.50
2019-01-22T13:51:31.787Z,32.03
2019-01-22T13:54:21.912Z,34.33
2019-01-22T13:57:11.692Z,32.33
2019-01-22T13:59:55.684Z,33.95
2019-01-22T14:02:45.462Z,34.27
2019-01-22T14:05:28.970Z,33.95
2019-01-22T14:08:18.743Z,34.38
2019-01-22T14:11:01.849Z,30.55
2019-01-22T14:13:44.612Z,33.67
2019-01-22T14:16:27.912Z,29.95
2019-01-22T14:19:18.026Z,37.90
2019-01-22T14:22:00.589Z,32.78
2019-01-22T14:24:50.729Z,39.40
2019-01-22T14:27:33.005Z,35.98
2019-01-22T14:30:44.213Z,39.03
2019-01-22T14:33:34.032Z,39.23
2019-01-22T14:36:16.777Z,30.77
2019-01-22T14:39:07.445Z,34.65
2019-01-22T14:41:48.430Z,28.85
2019-01-22T14:44:38.583Z,29.18
2019-01-22T14:47:22.642Z,34.55
2019-01-22T14:50:32.989Z,35.45
2019-01-22T14:53:15.595Z,32.25
2019-01-22T14:55:57.939Z,37.40
2019-01-22T14:58:47.727Z,35.68
2019-01-22T15:01:37.526Z,33.60
2019-01-22T15:04:20.754Z,37.58
2019-01-22T15:07:10.550Z,36.58
2019-01-22T15:09:40.911Z,35.65
2019-01-22T15:12:31.021Z,39.98
2019-01-22T15:15:03.007Z,42.08
2019-01-22T15:17:33.757Z,44.35
2019-01-22T15:20:20.192Z,46.83
2019-01-22T15:22:50.554Z,46.63
2019-01-22T15:25:20.913Z,38.30
2019-01-22T15:27:51.299Z,41.80
2019-01-22T15:30:26.745Z,37.45
2019-01-22T15:32:57.490Z,45.63
2019-01-22T15:35:27.866Z,35.92
2019-01-22T15:37:58.560Z,36.05
2019-01-22T15:40:32.398Z,41.45
2019-01-22T15:43:02.773Z,39.90
2019-01-22T15:45:33.110Z,43.65
2019-01-22T15:48:03.859Z,42.27
2019-01-22T15:50:34.589Z,48.30
2019-01-22T15:53:05.511Z,45.05
2019-01-22T15:55:36.365Z,42.00
2019-01-22T15:58:06.990Z,40.40
2019-01-22T16:00:37.346Z,41.13
2019-01-22T16:03:07.738Z,40.35
2019-01-22T16:05:38.083Z,42.98
2019-01-22T16:08:08.827Z,47.43
2019-01-22T16:10:39.204Z,52.90
2019-01-22T16:13:10.080Z,45.75
2019-01-22T16:15:40.789Z,52.50
2019-01-22T16:18:11.524Z,67.30
2019-01-22T16:20:41.895Z,109.27
2019-01-22T16:23:12.326Z,89.67
2019-01-22T16:25:42.688Z,83.42
2019-01-22T16:28:13.424Z,74.82
2019-01-22T16:30:44.126Z,63.92
2019-01-22T16:33:14.786Z,70.00
2019-01-22T16:35:45.130Z,60.98
2019-01-22T16:38:15.797Z,57.08
2019-01-22T16:40:46.440Z,50.40
2019-01-22T16:43:16.819Z,49.00
2019-01-22T16:45:47.167Z,44.18
2019-01-22T16:48:17.871Z,41.77
2019-01-22T16:50:48.299Z,43.10
2019-01-22T16:53:18.747Z,41.88
2019-01-22T16:55:49.140Z,47.40
2019-01-22T16:58:19.565Z,44.10
2019-01-22T17:00:50.309Z,50.55
2019-01-22T17:03:21.020Z,37.75
2019-01-22T17:05:53.507Z,59.60
2019-01-22T17:08:24.222Z,46.90
2019-01-22T17:10:54.560Z,44.93
2019-01-22T17:13:25.332Z,46.18
2019-01-22T17:15:56.033Z,51.55
2019-01-22T17:18:26.664Z,44.38
2019-01-22T17:20:57.034Z,45.30
2019-01-22T17:23:27.440Z,51.02
2019-01-22T17:25:58.152Z,39.55
2019-01-22T17:28:28.519Z,48.52
2019-01-22T17:30:59.889Z,51.00
2019-01-22T17:33:31.882Z,46.35
2019-01-22T17:36:02.238Z,53.23
2019-01-22T17:38:32.644Z,55.45
2019-01-22T17:41:02.990Z,54.63
2019-01-22T17:43:33.364Z,48.08
2019-01-22T17:46:04.037Z,48.25
2019-01-22T17:48:34.442Z,53.68
2019-01-22T17:51:05.530Z,59.38
2019-01-22T17:53:36.263Z,52.98
2019-01-22T17:56:06.745Z,56.60
2019-01-22T17:58:37.092Z,56.90
2019-01-22T18:01:07.517Z,48.00
2019-01-22T18:03:38.210Z,52.20
2019-01-22T18:06:09.208Z,59.83
2019-01-22T18:08:39.821Z,53.23
2019-01-22T18:11:10.194Z,56.58
2019-01-22T18:13:40.918Z,47.13
2019-01-22T18:16:11.356Z,49.90
2019-01-22T18:18:46.107Z,50.65
2019-01-22T18:21:14.975Z,53.63
2019-01-22T18:23:45.314Z,55.15
2019-01-22T18:26:16.248Z,59.88
2019-01-22T18:28:46.979Z,51.98
2019-01-22T18:31:18.003Z,51.60
2019-01-22T18:33:48.642Z,52.70
2019-01-22T18:36:19.290Z,50.80
2019-01-22T18:38:49.916Z,48.92
2019-01-22T18:41:20.576Z,51.42
2019-01-22T18:43:50.973Z,64.22
2019-01-22T18:46:21.315Z,45.85
2019-01-22T18:48:51.684Z,51.08
2019-01-22T18:51:22.056Z,55.40
2019-01-22T18:53:52.800Z,49.55
2019-01-22T18:56:23.187Z,50.17
2019-01-22T18:58:53.979Z,51.90
2019-01-22T19:01:24.716Z,52.73
2019-01-22T19:03:55.064Z,46.98
2019-01-22T19:06:25.813Z,45.95
2019-01-22T19:08:56.181Z,43.83
2019-01-22T19:11:26.520Z,46.50
2019-01-22T19:13:56.947Z,49.90
2019-01-22T19:16:27.685Z,47.45
2019-01-22T19:18:58.731Z,42.90
2019-01-22T19:21:29.404Z,45.45
2019-01-22T19:23:59.893Z,45.50
2019-01-22T19:26:30.265Z,40.73
2019-01-22T19:29:00.664Z,46.08
2019-01-22T19:31:31.035Z,48.20
2019-01-22T19:34:01.402Z,43.28
2019-01-22T19:36:31.777Z,54.10
2019-01-22T19:39:02.561Z,59.63
2019-01-22T19:41:33.192Z,59.40
2019-01-22T19:44:03.885Z,51.68
2019-01-22T19:46:34.254Z,51.28
2019-01-22T19:49:04.909Z,53.05
2019-01-22T19:51:35.322Z,55.83
2019-01-22T19:54:05.706Z,50.83
2019-01-22T19:56:36.078Z,52.35
2019-01-22T19:59:06.423Z,44.98
2019-01-22T20:01:36.820Z,50.52
2019-01-22T20:04:07.206Z,48.98
2019-01-22T20:06:38.114Z,53.50
2019-01-22T20:09:09.549Z,52.30
2019-01-22T20:11:40.318Z,70.65
2019-01-22T20:14:10.861Z,55.83
2019-01-22T20:16:41.552Z,58.52
2019-01-22T20:19:11.962Z,66.10
2019-01-22T20:21:42.643Z,51.13
2019-01-22T20:24:16.841Z,51.95
2019-01-22T20:26:45.446Z,65.03
2019-01-22T20:29:15.791Z,57.43
2019-01-22T20:31:46.211Z,56.70
2019-01-22T20:34:16.894Z,58.90
2019-01-22T20:36:47.306Z,58.83
2019-01-22T20:39:18.959Z,67.40
2019-01-22T20:41:49.651Z,59.70
2019-01-22T20:44:20.130Z,67.58
2019-01-22T20:46:50.841Z,61.08
2019-01-22T20:49:21.531Z,67.82
2019-01-22T20:51:51.887Z,61.70
2019-01-22T20:54:22.280Z,63.63
2019-01-22T20:56:52.824Z,70.45
2019-01-22T20:59:23.208Z,72.87
2019-01-22T21:01:53.570Z,67.30
2019-01-22T21:04:23.944Z,76.45
2019-01-22T21:06:54.326Z,67.08
2019-01-22T21:09:24.993Z,62.70
2019-01-22T21:11:56.006Z,69.22
2019-01-22T21:14:26.375Z,68.33
2019-01-22T21:17:09.330Z,67.03
2019-01-22T21:20:02.135Z,64.55
2019-01-22T21:23:03.032Z,59.55
2019-01-22T21:25:53.099Z,66.25
2019-01-22T21:28:36.219Z,68.70
2019-01-22T21:31:26.268Z,73.45
2019-01-22T21:34:08.762Z,78.10
2019-01-22T21:36:58.540Z,75.15
2019-01-22T21:39:43.549Z,71.28
2019-01-22T21:46:05.188Z,73.78
2019-01-22T21:48:54.961Z,70.40
2019-01-22T21:51:39.514Z,68.72
2019-01-22T21:57:30.554Z,67.95
2019-01-22T22:00:41.702Z,77.22
2019-01-22T22:03:31.487Z,79.10
2019-01-22T22:06:40.376Z,86.28
2019-01-22T22:09:23.048Z,62.95
2019-01-22T22:12:31.953Z,74.70
2019-01-22T22:15:17.316Z,71.40
2019-01-22T22:18:07.140Z,85.12
2019-01-22T22:21:17.304Z,84.70
2019-01-22T22:24:00.421Z,84.17
2019-01-22T22:26:50.577Z,88.60
2019-01-22T22:29:21.320Z,76.35
2019-01-22T22:32:11.318Z,79.10
2019-01-22T22:34:51.915Z,71.87
2019-01-22T22:40:49.772Z,88.40
2019-01-22T22:43:39.860Z,84.87
2019-01-22T22:46:22.999Z,99.72
2019-01-22T22:49:13.071Z,90.22
2019-01-22T22:51:57.479Z,88.85
2019-01-22T22:54:47.521Z,82.33
2019-01-22T22:57:37.691Z,94.42
2019-01-22T23:00:40.147Z,81.22
2019-01-22T23:03:23.258Z,80.07
2019-01-22T23:06:13.035Z,94.15
2019-01-22T23:08:56.279Z,96.95
2019-01-22T23:11:46.451Z,100.50
2019-01-22T23:14:29.489Z,92.42
2019-01-22T23:17:19.948Z,101.10
2019-01-22T23:20:02.939Z,101.80
2019-01-22T23:22:53.166Z,100.95
2019-01-22T23:25:37.386Z,100.15
2019-01-22T23:28:28.926Z,97.25
2019-01-22T23:31:31.431Z,86.85
2019-01-22T23:34:21.228Z,95.57
2019-01-22T23:37:04.242Z,98.22
2019-01-22T23:40:05.062Z,101.25
2019-01-22T23:43:15.998Z,108.27
2019-01-22T23:46:01.300Z,90.45
2019-01-22T23:48:51.113Z,99.25
2019-01-22T23:51:34.321Z,100.05
2019-01-22T23:54:24.122Z,91.10
2019-01-22T23:57:07.476Z,95.47
2019-01-22T23:59:58.490Z,93.72
